Time;durP1;ratioP1;P1;durP2;ratioP2;P2;SDS_P1;SDS_P2;PMS_P1;PMS_P2;Temp;Humidity;BMP_temperature;BMP_pressure;BME280_temperature;BME280_humidity;BME280_pressure;Samples;Min_cycle;Max_cycle;Signal;HPM_P1;HPM_P2
2023/09/17 00:00:41;;;;;;;10.90;8.20;;;;;;;14.69;96.28;96979.11;111741;1244;22492;-73
2023/09/17 00:03:29;;;;;;;9.50;7.90;;;;;;;14.61;96.94;96974.77;111681;1244;22512;-73
2023/09/17 00:05:58;;;;;;;9.60;7.20;;;;;;;14.62;97.27;96977.64;111675;1244;26457;-73
2023/09/17 00:08:26;;;;;;;8.70;6.90;;;;;;;14.56;97.12;96976.58;111681;1244;23420;-72
2023/09/17 00:10:57;;;;;;;9.40;7.50;;;;;;;14.51;97.41;96972.46;111714;1244;24831;-73
2023/09/17 00:13:27;;;;;;;11.60;8.80;;;;;;;14.56;97.99;96970.45;111715;1244;22638;-72
2023/09/17 00:15:56;;;;;;;8.90;8.00;;;;;;;14.72;98.92;96966.57;111723;1244;22488;-73
2023/09/17 00:18:24;;;;;;;14.20;11.50;;;;;;;14.90;98.90;96962.33;111777;1243;22505;-73
2023/09/17 00:20:53;;;;;;;20.10;15.40;;;;;;;14.89;97.93;96961.86;111739;1244;25270;-73
2023/09/17 00:23:23;;;;;;;14.50;11.60;;;;;;;14.84;97.90;96968.91;111752;1244;24195;-73
2023/09/17 00:25:51;;;;;;;12.40;10.20;;;;;;;14.90;98.19;96973.64;111731;1244;22502;-73
2023/09/17 00:28:20;;;;;;;10.10;8.30;;;;;;;14.95;98.15;96973.98;111690;1244;22505;-73
2023/09/17 00:30:48;;;;;;;9.10;7.50;;;;;;;14.97;97.87;96970.96;111716;1244;22512;-72
2023/09/17 00:33:17;;;;;;;12.30;9.60;;;;;;;14.99;97.91;96964.50;111709;1244;22544;-73
2023/09/17 00:35:46;;;;;;;14.50;12.10;;;;;;;15.03;97.96;96965.13;111726;1244;22503;-72
2023/09/17 00:38:14;;;;;;;9.80;7.70;;;;;;;15.08;98.09;96959.80;111739;1244;24273;-73
2023/09/17 00:40:43;;;;;;;12.90;9.60;;;;;;;15.17;98.01;96958.52;111794;1244;22514;-73
2023/09/17 00:43:11;;;;;;;9.00;7.50;;;;;;;15.21;97.70;96966.09;111716;1244;22945;-73
2023/09/17 00:45:43;;;;;;;9.30;7.70;;;;;;;15.19;97.38;96962.06;111762;1244;22502;-73
2023/09/17 00:48:13;;;;;;;8.60;6.80;;;;;;;15.10;97.06;96959.43;111752;1243;24368;-73
2023/09/17 00:50:46;;;;;;;16.30;13.90;;;;;;;15.06;97.08;96952.08;111749;1244;25404;-73
2023/09/17 00:53:16;;;;;;;12.40;10.00;;;;;;;15.05;97.07;96946.91;111724;1244;22564;-73
2023/09/17 00:55:43;;;;;;;;;;;;;;;15.03;97.04;96943.05;111730;1244;22495;-73
2023/09/17 00:58:12;;;;;;;8.50;6.50;;;;;;;15.04;97.23;96937.70;111718;1244;22503;-73
2023/09/17 01:00:45;;;;;;;22.90;17.10;;;;;;;14.99;97.16;96934.43;111724;1244;22625;-73
2023/09/17 01:03:14;;;;;;;9.90;6.60;;;;;;;14.94;96.74;96941.76;111780;1244;22531;-73
2023/09/17 01:05:44;;;;;;;8.40;7.00;;;;;;;14.77;96.68;96948.38;111775;1244;22581;-73
2023/09/17 01:08:13;;;;;;;11.20;10.00;;;;;;;14.63;96.97;96949.34;111765;1244;22538;-73
2023/09/17 01:10:46;;;;;;;8.70;6.70;;;;;;;14.56;97.35;96953.97;111741;1244;22505;-73
2023/09/17 01:13:17;;;;;;;7.50;6.60;;;;;;;14.52;97.79;96951.32;111779;1244;24637;-73
2023/09/17 01:15:45;;;;;;;6.80;5.80;;;;;;;14.57;98.32;96948.27;111753;1230;22517;-72
2023/09/17 01:18:18;;;;;;;9.00;6.70;;;;;;;14.63;98.55;96950.88;111734;1244;25389;-73
2023/09/17 01:20:56;;;;;;;7.80;6.60;;;;;;;14.67;98.50;96954.50;111739;1244;22496;-73
2023/09/17 01:23:33;;;;;;;7.90;7.00;;;;;;;14.67;98.38;96951.66;111718;1244;22502;-73
2023/09/17 01:26:10;;;;;;;7.80;6.30;;;;;;;14.71;98.55;96951.10;111748;1244;22518;-73
2023/09/17 01:28:40;;;;;;;8.30;6.90;;;;;;;14.75;98.55;96947.02;111755;1244;24246;-73
2023/09/17 01:31:09;;;;;;;;;;;;;;;14.78;98.62;96946.65;111786;1244;22510;-73
2023/09/17 01:33:38;;;;;;;7.80;7.00;;;;;;;14.83;98.52;96946.14;111770;1244;22505;-73
2023/09/17 01:36:11;;;;;;;7.80;6.70;;;;;;;14.77;97.89;96952.02;111764;1244;22504;-73
2023/09/17 01:38:47;;;;;;;7.30;6.40;;;;;;;14.63;97.68;96948.43;111773;1244;22501;-73
2023/09/17 01:41:17;;;;;;;8.50;6.60;;;;;;;14.49;97.68;96947.36;111806;1244;23266;-72
2023/09/17 01:43:46;;;;;;;8.20;6.90;;;;;;;14.47;98.32;96947.29;111761;1244;22608;-73
2023/09/17 01:46:16;;;;;;;9.60;7.60;;;;;;;14.54;98.81;96946.58;111759;1244;22502;-73
2023/09/17 01:48:46;;;;;;;11.20;9.40;;;;;;;14.61;98.69;96949.23;111772;1244;22981;-73
2023/09/17 01:51:26;;;;;;;11.40;8.80;;;;;;;14.59;98.29;96946.44;111764;1244;25410;-73
2023/09/17 01:53:54;;;;;;;12.60;9.10;;;;;;;14.58;98.24;96945.95;111740;1244;22510;-73
2023/09/17 01:56:27;;;;;;;9.00;6.20;;;;;;;14.61;98.20;96944.14;111764;1244;24204;-73
2023/09/17 01:58:56;;;;;;;8.10;6.70;;;;;;;14.58;97.79;96942.98;111742;1244;22521;-72
2023/09/17 02:01:24;;;;;;;8.20;6.80;;;;;;;14.59;97.95;96942.58;111716;1244;25392;-73
2023/09/17 02:03:52;;;;;;;7.80;6.50;;;;;;;14.56;97.58;96939.17;111715;1244;22505;-72
2023/09/17 02:06:20;;;;;;;9.40;7.00;;;;;;;14.38;97.10;96940.22;111738;1244;22511;-73
2023/09/17 02:08:49;;;;;;;9.20;6.90;;;;;;;14.18;97.08;96939.81;111752;1240;24192;-73
2023/09/17 02:11:18;;;;;;;7.80;7.00;;;;;;;14.06;97.70;96940.08;111730;1244;22657;-73
2023/09/17 02:13:46;;;;;;;8.50;7.20;;;;;;;14.08;98.54;96938.55;111770;1244;24908;-73
2023/09/17 02:16:17;;;;;;;10.80;6.90;;;;;;;14.14;98.79;96937.10;111788;1244;22523;-73
2023/09/17 02:18:45;;;;;;;8.30;7.20;;;;;;;14.19;98.79;96942.23;111745;1244;22611;-73
2023/09/17 02:21:13;;;;;;;7.70;6.70;;;;;;;14.18;98.61;96950.52;111755;1244;22992;-72
2023/09/17 02:23:41;;;;;;;7.80;6.20;;;;;;;14.13;98.46;96946.25;111785;1244;22492;-73
2023/09/17 02:26:15;;;;;;;8.00;7.20;;;;;;;14.07;98.47;96945.59;111763;1244;22605;-73
2023/09/17 02:28:46;;;;;;;10.40;7.00;;;;;;;14.11;99.02;96943.09;111810;1244;22532;-73
2023/09/17 02:31:14;;;;;;;11.50;9.60;;;;;;;14.16;99.13;96939.25;111770;1244;25256;-73
2023/09/17 02:33:42;;;;;;;8.40;6.90;;;;;;;14.19;99.14;96937.33;111770;1244;22485;-73
2023/09/17 02:36:11;;;;;;;10.40;7.30;;;;;;;14.22;99.01;96942.00;111761;1244;22515;-73
2023/09/17 02:38:41;;;;;;;8.30;7.10;;;;;;;14.22;98.83;96938.89;111747;1244;22508;-73
2023/09/17 02:41:09;;;;;;;7.10;5.70;;;;;;;14.17;98.82;96941.27;111785;1244;22591;-73
2023/09/17 02:43:38;;;;;;;7.20;6.20;;;;;;;14.04;98.29;96944.89;111757;1244;22489;-73
2023/09/17 02:46:06;;;;;;;8.40;6.90;;;;;;;13.92;98.62;96943.86;111762;1244;25349;-73
2023/09/17 02:48:35;;;;;;;8.60;6.20;;;;;;;13.96;99.22;96945.31;111747;1244;22641;-73
2023/09/17 02:51:03;;;;;;;8.10;7.00;;;;;;;13.95;99.25;96942.61;111792;1244;22505;-72
2023/09/17 02:53:32;;;;;;;7.40;6.50;;;;;;;13.97;99.47;96942.78;111787;1244;22491;-73
2023/09/17 02:56:00;;;;;;;7.70;6.30;;;;;;;14.01;99.75;96949.42;111771;1244;25491;-73
2023/09/17 02:58:28;;;;;;;7.10;5.40;;;;;;;14.09;99.94;96948.45;111751;1244;22501;-73
2023/09/17 03:00:57;;;;;;;8.40;6.60;;;;;;;14.12;99.82;96950.44;111764;1244;22540;-73
2023/09/17 03:03:27;;;;;;;8.70;7.50;;;;;;;14.13;99.71;96949.88;111777;1244;22509;-73
2023/09/17 03:05:58;;;;;;;12.60;7.50;;;;;;;14.14;99.94;96948.46;111770;1244;22521;-73
2023/09/17 03:08:27;;;;;;;8.70;7.30;;;;;;;14.18;99.99;96950.31;111888;1244;23464;-73
2023/09/17 03:10:59;;;;;;;8.30;7.20;;;;;;;14.22;100.00;96949.98;111813;1244;22592;-73
2023/09/17 03:13:28;;;;;;;9.00;7.30;;;;;;;14.27;100.00;96948.52;111781;1244;22535;-73
2023/09/17 03:15:59;;;;;;;9.10;6.90;;;;;;;14.32;100.00;96950.60;111792;1244;22495;-72
2023/09/17 03:18:27;;;;;;;8.90;7.50;;;;;;;14.35;100.00;96952.00;111778;1244;22508;-72
2023/09/17 03:20:56;;;;;;;8.20;7.30;;;;;;;14.39;100.00;96952.91;111798;1244;22511;-72
2023/09/17 03:23:26;;;;;;;10.00;7.40;;;;;;;14.40;100.00;96952.23;111811;1244;22508;-73
2023/09/17 03:25:54;;;;;;;8.40;7.40;;;;;;;14.40;100.00;96950.76;111822;1244;22516;-72
2023/09/17 03:28:27;;;;;;;9.90;7.60;;;;;;;14.43;100.00;96949.41;111816;1244;23204;-73
2023/09/17 03:30:56;;;;;;;9.00;6.90;;;;;;;14.43;100.00;96951.71;111839;1244;22502;-73
2023/09/17 03:33:26;;;;;;;9.50;7.50;;;;;;;14.43;100.00;96953.08;111787;1244;22498;-72
2023/09/17 03:35:54;;;;;;;8.70;7.80;;;;;;;14.43;99.99;96955.70;111847;1244;24216;-72
2023/09/17 03:38:25;;;;;;;8.40;7.10;;;;;;;14.40;99.98;96951.54;111767;1244;22629;-72
2023/09/17 03:40:54;;;;;;;9.20;7.50;;;;;;;14.38;100.00;96956.39;111803;1244;22501;-72
2023/09/17 03:43:24;;;;;;;11.20;7.50;;;;;;;14.38;100.00;96955.22;111783;1244;25295;-72
2023/09/17 03:45:58;;;;;;;8.70;7.40;;;;;;;14.40;100.00;96956.88;111798;1244;24784;-72
2023/09/17 03:48:27;;;;;;;8.80;7.90;;;;;;;14.42;100.00;96956.99;111807;1244;25222;-73
2023/09/17 03:50:58;;;;;;;10.20;8.10;;;;;;;14.45;100.00;96956.17;111816;1244;25395;-72
2023/09/17 03:53:27;;;;;;;10.00;7.90;;;;;;;14.50;100.00;96956.78;111813;1244;22508;-72
2023/09/17 03:55:56;;;;;;;9.40;7.80;;;;;;;14.54;100.00;96958.25;111828;1244;22549;-72
2023/09/17 03:58:25;;;;;;;9.00;8.00;;;;;;;14.57;100.00;96955.80;111811;1244;22506;-72
2023/09/17 04:00:55;;;;;;;9.20;7.40;;;;;;;14.60;100.00;96955.80;111791;1244;25846;-73
2023/09/17 04:03:25;;;;;;;11.20;8.10;;;;;;;14.65;100.00;96951.98;111832;1244;22668;-72
2023/09/17 04:05:53;;;;;;;9.50;8.10;;;;;;;14.68;100.00;96954.28;111814;1244;23552;-72
2023/09/17 04:08:22;;;;;;;9.90;8.10;;;;;;;14.68;100.00;96953.08;111790;1244;24188;-72
2023/09/17 04:10:54;;;;;;;9.30;7.90;;;;;;;14.73;100.00;96957.47;111814;1244;24176;-72
2023/09/17 04:13:27;;;;;;;9.40;7.60;;;;;;;14.78;100.00;96957.45;111803;1244;24198;-73
2023/09/17 04:15:56;;;;;;;11.70;7.60;;;;;;;14.83;100.00;96953.33;111837;1244;22577;-72
2023/09/17 04:18:25;;;;;;;8.50;7.30;;;;;;;14.88;100.00;96950.57;111811;1244;22499;-72
2023/09/17 04:20:53;;;;;;;9.20;7.80;;;;;;;14.93;100.00;96950.55;111836;1244;22505;-72
2023/09/17 04:23:24;;;;;;;8.60;7.70;;;;;;;14.96;100.00;96947.70;111801;1244;22603;-72
2023/09/17 04:25:55;;;;;;;7.50;6.70;;;;;;;14.99;100.00;96948.63;111859;1244;22519;-73
2023/09/17 04:28:24;;;;;;;9.50;7.10;;;;;;;15.02;100.00;96947.62;111793;1244;24198;-72
2023/09/17 04:30:54;;;;;;;7.80;7.00;;;;;;;15.05;100.00;96945.52;111823;1244;22461;-72
2023/09/17 04:33:23;;;;;;;10.00;7.90;;;;;;;15.16;100.00;96947.17;111808;1244;23274;-72
2023/09/17 04:35:57;;;;;;;9.30;7.20;;;;;;;15.33;100.00;96947.19;111812;1244;26525;-72
2023/09/17 04:38:25;;;;;;;9.70;6.90;;;;;;;15.53;100.00;96952.84;111807;1244;25330;-72
2023/09/17 04:40:53;;;;;;;8.80;7.30;;;;;;;15.75;100.00;96953.71;111818;1244;22551;-72
2023/09/17 04:43:23;;;;;;;7.20;5.70;;;;;;;16.00;100.00;96954.09;111782;1244;22509;-72
2023/09/17 04:45:51;;;;;;;8.80;6.30;;;;;;;16.27;99.91;96954.73;111843;1231;24365;-72
2023/09/17 04:48:20;;;;;;;7.10;6.30;;;;;;;16.50;99.29;96954.29;111773;1244;22554;-72
2023/09/17 04:50:49;;;;;;;6.60;5.70;;;;;;;16.74;98.78;96952.94;111822;1244;22477;-72
2023/09/17 04:53:17;;;;;;;6.10;5.30;;;;;;;16.96;98.07;96954.70;111827;1244;24204;-73
2023/09/17 04:55:45;;;;;;;7.20;5.20;;;;;;;17.12;97.33;96960.52;111829;1244;22533;-72
2023/09/17 04:58:14;;;;;;;6.90;5.30;;;;;;;17.30;96.95;96961.18;111835;1244;22509;-72
2023/09/17 05:00:44;;;;;;;5.90;5.00;;;;;;;17.49;96.17;96966.29;111839;1244;25277;-73
2023/09/17 05:03:15;;;;;;;5.40;4.90;;;;;;;17.58;95.27;96965.09;111837;1244;22938;-72
2023/09/17 05:05:46;;;;;;;7.30;6.00;;;;;;;17.67;94.73;96964.27;111815;1244;25284;-72
2023/09/17 05:08:16;;;;;;;5.80;5.20;;;;;;;17.75;94.25;96968.52;111800;1244;25384;-73
2023/09/17 05:10:45;;;;;;;6.40;5.20;;;;;;;17.90;94.00;96972.48;111789;1244;26534;-73
2023/09/17 05:13:13;;;;;;;6.40;5.40;;;;;;;18.07;93.65;96976.77;111802;1244;22533;-73
2023/09/17 05:15:44;;;;;;;5.90;5.20;;;;;;;18.28;93.25;96976.71;111804;1244;22521;-73
2023/09/17 05:18:15;;;;;;;6.00;5.40;;;;;;;18.47;92.79;96974.93;111768;1244;22527;-73
2023/09/17 05:20:48;;;;;;;7.00;5.10;;;;;;;18.63;92.12;96978.19;111796;1244;24365;-72
2023/09/17 05:23:17;;;;;;;6.90;5.10;;;;;;;18.74;90.92;96980.55;111802;1244;22508;-72
2023/09/17 05:25:46;;;;;;;6.20;5.50;;;;;;;18.72;90.44;96980.11;111817;1244;22500;-72
2023/09/17 05:28:15;;;;;;;5.70;4.90;;;;;;;18.79;89.94;96987.23;111789;1244;23942;-73
2023/09/17 05:30:44;;;;;;;5.60;4.50;;;;;;;18.82;89.13;96981.90;111791;1244;22496;-72
2023/09/17 05:33:13;;;;;;;5.40;4.70;;;;;;;19.00;89.41;96992.35;111782;1244;22522;-73
2023/09/17 05:35:43;;;;;;;6.30;5.50;;;;;;;19.27;88.78;96995.27;111813;1244;22500;-73
2023/09/17 05:38:11;;;;;;;8.00;5.20;;;;;;;19.53;88.37;96995.69;111808;1244;24152;-73
2023/09/17 05:40:40;;;;;;;5.90;4.80;;;;;;;19.86;88.20;96994.24;111816;1244;22903;-74
2023/09/17 05:43:08;;;;;;;5.40;4.80;;;;;;;20.21;87.12;96999.40;111768;1244;23152;-73
2023/09/17 05:45:38;;;;;;;5.60;4.90;;;;;;;20.27;85.82;96999.02;111764;1244;22507;-73
2023/09/17 05:48:08;;;;;;;6.40;4.70;;;;;;;20.28;84.84;96996.14;111705;1244;22689;-73
2023/09/17 05:50:35;;;;;;;;;;;;;;;20.27;84.34;96995.70;111791;1244;22487;-73
2023/09/17 05:53:04;;;;;;;5.30;4.40;;;;;;;20.22;83.55;96998.46;111728;1244;22956;-73
2023/09/17 05:55:35;;;;;;;5.20;4.70;;;;;;;20.03;81.91;97002.24;111696;1244;22556;-73
2023/09/17 05:58:04;;;;;;;5.60;4.50;;;;;;;20.08;82.57;97004.95;111713;1244;25269;-73
2023/09/17 06:00:35;;;;;;;6.60;4.90;;;;;;;20.21;82.23;97005.79;111784;1244;22631;-75
2023/09/17 06:03:04;;;;;;;6.20;4.90;;;;;;;20.51;82.70;97008.45;111773;1244;22508;-75
2023/09/17 06:05:36;;;;;;;5.70;4.50;;;;;;;20.90;81.74;97006.06;111786;1244;22552;-76
2023/09/17 06:08:05;;;;;;;;;;;;;;;21.04;80.90;97009.27;111825;1244;22490;-75
2023/09/17 06:10:34;;;;;;;5.00;4.50;;;;;;;21.28;80.41;97007.61;111814;1244;25071;-76
2023/09/17 06:13:02;;;;;;;4.70;4.20;;;;;;;21.43;79.68;97005.20;111784;1244;24218;-75
2023/09/17 06:15:31;;;;;;;6.90;4.70;;;;;;;21.36;78.56;97001.86;111785;1244;22509;-76
2023/09/17 06:18:02;;;;;;;7.40;5.10;;;;;;;21.24;77.91;97004.61;111797;1244;22947;-76
2023/09/17 06:20:30;;;;;;;6.30;4.30;;;;;;;21.19;77.74;97004.06;111834;1244;24217;-75
2023/09/17 06:22:59;;;;;;;5.60;5.00;;;;;;;21.08;77.62;97005.09;111817;1244;22491;-75
2023/09/17 06:25:28;;;;;;;5.40;4.40;;;;;;;21.05;77.37;97008.23;111796;1244;22554;-76
2023/09/17 06:27:57;;;;;;;4.90;4.40;;;;;;;21.07;77.25;97014.08;111757;1244;26893;-75
2023/09/17 06:30:27;;;;;;;5.70;4.60;;;;;;;21.05;76.81;97010.45;111794;1244;22516;-76
2023/09/17 06:32:56;;;;;;;5.60;4.90;;;;;;;21.08;77.17;97015.24;111804;1244;22547;-76
2023/09/17 06:35:27;;;;;;;5.10;4.60;;;;;;;21.22;77.02;97012.92;111787;1244;26393;-76
2023/09/17 06:37:56;;;;;;;5.60;4.90;;;;;;;21.31;76.87;97014.95;111769;1244;22649;-76
2023/09/17 06:40:27;;;;;;;5.40;4.70;;;;;;;21.36;76.73;97013.70;111809;1244;22507;-76
2023/09/17 06:42:58;;;;;;;6.40;4.70;;;;;;;21.43;76.76;97015.02;111824;1244;24176;-76
2023/09/17 06:45:26;;;;;;;5.50;4.70;;;;;;;21.56;76.44;97012.16;111609;1244;26528;-77
2023/09/17 06:47:56;;;;;;;6.30;4.90;;;;;;;21.63;76.72;97015.16;111742;1244;22483;-77
2023/09/17 06:50:26;;;;;;;5.20;4.70;;;;;;;21.70;75.90;97016.46;111817;1244;22502;-75
2023/09/17 06:52:55;;;;;;;5.70;5.10;;;;;;;21.56;75.51;97019.21;111683;1231;22496;-74
2023/09/17 06:55:24;;;;;;;;;;;;;;;21.67;76.19;97017.75;111402;1244;22469;-75
2023/09/17 06:57:59;;;;;;;4.60;4.20;;;;;;;21.72;75.12;97019.99;111634;1243;29657;-75
2023/09/17 07:00:28;;;;;;;5.30;4.80;;;;;;;21.72;75.13;97023.67;111768;1244;22763;-74
2023/09/17 07:02:57;;;;;;;5.90;4.80;;;;;;;21.83;75.41;97024.31;111783;1244;22486;-74
2023/09/17 07:05:25;;;;;;;;;;;;;;;22.01;75.36;97026.70;111793;1244;24750;-74
2023/09/17 07:07:57;;;;;;;5.70;5.00;;;;;;;22.15;75.34;97030.98;111801;1244;22532;-74
2023/09/17 07:10:26;;;;;;;6.10;4.80;;;;;;;22.30;74.95;97028.77;111868;1244;22623;-74
2023/09/17 07:12:56;;;;;;;5.40;4.90;;;;;;;22.34;74.17;97026.95;111809;1244;22607;-74
2023/09/17 07:15:27;;;;;;;5.20;4.60;;;;;;;22.37;74.21;97025.59;111827;1244;22509;-74
2023/09/17 07:17:57;;;;;;;6.40;5.20;;;;;;;22.58;74.23;97026.89;111811;1244;25583;-74
2023/09/17 07:20:29;;;;;;;5.40;4.90;;;;;;;22.73;74.04;97030.64;111792;1244;22526;-74
2023/09/17 07:23:00;;;;;;;5.10;4.60;;;;;;;22.86;73.88;97030.05;111791;1244;22539;-74
2023/09/17 07:25:29;;;;;;;5.00;4.50;;;;;;;23.02;73.59;97028.54;111796;1244;22517;-74
2023/09/17 07:28:07;;;;;;;5.10;4.60;;;;;;;23.17;73.08;97029.30;111784;1244;22510;-74
2023/09/17 07:30:38;;;;;;;5.20;4.70;;;;;;;23.35;73.02;97036.30;111799;1244;22502;-75
2023/09/17 07:33:11;;;;;;;5.00;4.40;;;;;;;23.44;72.49;97039.75;111807;1244;22506;-75
2023/09/17 07:35:43;;;;;;;5.20;4.50;;;;;;;23.52;72.18;97040.17;111865;1244;22489;-74
2023/09/17 07:38:13;;;;;;;5.40;4.90;;;;;;;23.44;71.29;97042.61;111107;1244;866754;-74
2023/09/17 07:40:47;;;;;;;5.10;4.50;;;;;;;23.45;71.13;97046.13;111825;1243;22707;-74
2023/09/17 07:43:18;;;;;;;6.00;5.00;;;;;;;23.37;71.01;97046.61;111787;1239;24286;-74
2023/09/17 07:45:50;;;;;;;6.70;5.00;;;;;;;23.35;70.59;97050.20;111800;1244;23462;-74
2023/09/17 07:48:23;;;;;;;5.70;4.30;;;;;;;23.22;70.77;97049.27;111763;1244;23344;-74
2023/09/17 07:51:02;;;;;;;5.60;4.60;;;;;;;23.27;71.55;97049.72;111850;1244;25364;-74
2023/09/17 07:53:33;;;;;;;6.20;4.80;;;;;;;23.56;72.06;97046.00;111812;1244;22528;-75
2023/09/17 07:56:03;;;;;;;5.10;4.50;;;;;;;23.80;71.58;97045.39;111816;1244;24208;-75
2023/09/17 07:58:33;;;;;;;4.90;4.30;;;;;;;23.84;70.52;97047.66;111515;1244;22514;-74
2023/09/17 08:01:05;;;;;;;4.90;4.40;;;;;;;23.95;70.11;97052.46;111721;1244;23417;-75
2023/09/17 08:03:36;;;;;;;5.90;4.50;;;;;;;24.00;69.79;97052.09;111758;1244;22505;-76
2023/09/17 08:06:09;;;;;;;4.60;4.10;;;;;;;24.20;69.91;97051.50;111830;1244;22496;-77
2023/09/17 08:08:38;;;;;;;4.40;4.00;;;;;;;24.37;69.64;97055.74;111630;1244;22954;-77
2023/09/17 08:11:08;;;;;;;5.30;4.00;;;;;;;24.44;69.01;97052.09;112211;1244;25378;-76
2023/09/17 08:13:38;;;;;;;4.70;4.10;;;;;;;24.52;68.80;97051.64;111758;1244;22490;-76
2023/09/17 08:16:07;;;;;;;4.30;3.90;;;;;;;24.73;68.80;97050.64;111780;1244;22533;-76
2023/09/17 08:18:38;;;;;;;;;;;;;;;25.03;68.36;97049.17;111766;1244;24449;-76
2023/09/17 08:21:07;;;;;;;4.00;3.70;;;;;;;25.10;67.44;97049.39;111683;1244;22605;-77
2023/09/17 08:23:35;;;;;;;;;;;;;;;25.26;67.15;97048.56;111678;1244;22576;-76
2023/09/17 08:26:05;;;;;;;5.00;4.00;;;;;;;25.24;66.47;97046.13;111709;1244;22486;-76
2023/09/17 08:28:37;;;;;;;4.40;4.00;;;;;;;25.34;66.09;97048.63;111759;1244;22532;-77
2023/09/17 08:31:07;;;;;;;4.60;3.80;;;;;;;25.20;65.29;97043.35;111629;1244;22509;-76
2023/09/17 08:33:37;;;;;;;4.30;3.70;;;;;;;25.01;64.47;97042.48;111816;1244;22511;-77
2023/09/17 08:36:08;;;;;;;5.10;3.90;;;;;;;24.75;64.39;97044.95;111957;1244;22516;-76
2023/09/17 08:38:38;;;;;;;4.10;3.40;;;;;;;24.66;64.37;97044.61;111753;1244;22932;-76
2023/09/17 08:41:08;;;;;;;4.30;3.80;;;;;;;24.54;64.38;97045.09;111742;1244;22487;-77
2023/09/17 08:43:40;;;;;;;5.70;3.60;;;;;;;24.53;64.90;97048.65;111710;1244;25060;-76
2023/09/17 08:46:10;;;;;;;4.70;3.90;;;;;;;24.47;64.47;97048.12;111807;1244;25314;-76
2023/09/17 08:48:40;;;;;;;4.60;3.70;;;;;;;24.48;64.55;97047.29;111717;1244;22524;-76
2023/09/17 08:51:13;;;;;;;4.20;3.60;;;;;;;24.75;64.67;97046.02;111794;1244;22624;-76
2023/09/17 08:53:49;;;;;;;4.30;3.70;;;;;;;25.20;64.68;97046.45;111706;1244;22502;-76
2023/09/17 08:56:20;;;;;;;5.60;3.60;;;;;;;25.48;63.61;97043.86;111750;1244;24350;-76
2023/09/17 08:58:59;;;;;;;4.20;3.60;;;;;;;25.53;63.15;97042.63;111706;1244;22557;-76
2023/09/17 09:01:27;;;;;;;;;;;;;;;25.34;61.81;97040.94;111802;1244;22491;-76
2023/09/17 09:04:00;;;;;;;4.90;3.70;;;;;;;25.19;62.50;97039.52;111739;1244;23132;-76
2023/09/17 09:06:31;;;;;;;4.40;3.80;;;;;;;25.43;63.30;97036.66;111879;1244;22633;-76
2023/09/17 09:09:05;;;;;;;4.30;3.40;;;;;;;25.72;63.87;97035.94;111670;1244;23769;-76
2023/09/17 09:11:35;;;;;;;4.00;3.60;;;;;;;25.95;62.63;97040.31;111798;1244;22504;-76
2023/09/17 09:14:06;;;;;;;5.90;3.90;;;;;;;25.91;61.98;97041.52;111701;1244;22927;-76
2023/09/17 09:16:37;;;;;;;4.30;3.80;;;;;;;25.77;61.06;97038.89;111709;1244;23192;-76
2023/09/17 09:19:07;;;;;;;4.00;3.20;;;;;;;25.52;60.77;97039.43;111692;1244;25413;-76
2023/09/17 09:21:36;;;;;;;3.90;3.30;;;;;;;25.36;60.36;97043.06;111737;1244;25440;-75
2023/09/17 09:24:07;;;;;;;3.90;3.50;;;;;;;25.52;62.03;97038.20;111716;1244;23116;-77
2023/09/17 09:26:37;;;;;;;3.10;2.80;;;;;;;25.74;61.08;97037.45;111800;1244;22522;-76
2023/09/17 09:29:07;;;;;;;3.20;2.90;;;;;;;25.67;60.25;97034.70;111771;1244;22494;-76
2023/09/17 09:31:36;;;;;;;3.40;3.10;;;;;;;25.73;60.31;97030.77;111735;1244;22495;-77
2023/09/17 09:34:06;;;;;;;3.60;3.30;;;;;;;25.82;60.36;97032.45;111753;1244;22991;-77
2023/09/17 09:36:41;;;;;;;2.80;2.60;;;;;;;25.91;60.45;97030.48;111763;1238;24168;-77
2023/09/17 09:39:14;;;;;;;3.70;3.00;;;;;;;26.03;59.73;97030.09;111750;1244;24241;-77
2023/09/17 09:41:46;;;;;;;3.30;3.00;;;;;;;26.14;59.48;97027.66;111726;1244;22527;-77
2023/09/17 09:44:16;;;;;;;2.90;2.70;;;;;;;26.12;58.98;97030.90;111624;1244;22505;-77
2023/09/17 09:46:46;;;;;;;3.60;3.00;;;;;;;26.16;59.61;97033.75;111714;1244;24396;-77
2023/09/17 09:49:15;;;;;;;3.20;3.00;;;;;;;26.26;58.75;97027.66;111757;1244;22500;-77
2023/09/17 09:51:44;;;;;;;4.00;3.00;;;;;;;26.20;58.55;97025.96;111731;1244;22503;-77
2023/09/17 09:54:14;;;;;;;3.90;3.30;;;;;;;26.16;58.85;97029.09;111734;1244;24119;-77
2023/09/17 09:56:43;;;;;;;5.00;3.80;;;;;;;26.07;58.37;97028.44;111768;1244;22494;-77
2023/09/17 09:59:15;;;;;;;3.00;2.70;;;;;;;25.85;58.46;97023.02;111688;1244;22516;-77
2023/09/17 10:01:44;;;;;;;4.70;3.60;;;;;;;25.82;58.81;97025.30;111759;1244;22489;-77
2023/09/17 10:04:14;;;;;;;3.90;3.60;;;;;;;25.87;58.27;97025.61;111761;1244;25391;-77
2023/09/17 10:06:43;;;;;;;4.00;3.60;;;;;;;25.71;58.07;97024.92;111757;1244;25222;-77
2023/09/17 10:09:13;;;;;;;3.80;3.50;;;;;;;25.66;58.95;97024.23;111681;1244;25313;-76
2023/09/17 10:11:42;;;;;;;3.80;3.20;;;;;;;25.81;58.69;97023.67;111730;1244;22510;-77
2023/09/17 10:14:12;;;;;;;3.50;3.20;;;;;;;25.76;58.19;97019.95;111764;1244;25420;-77
2023/09/17 10:16:42;;;;;;;3.30;2.30;;;;;;;25.74;57.27;97020.23;111629;1244;22605;-77
2023/09/17 10:19:18;;;;;;;3.10;2.80;;;;;;;25.64;57.28;97016.89;111665;1244;23831;-76
2023/09/17 10:21:48;;;;;;;3.60;2.90;;;;;;;25.69;57.46;97011.54;111747;1244;23000;-76
2023/09/17 10:24:19;;;;;;;3.00;2.70;;;;;;;25.75;56.53;97007.52;111727;1244;22486;-76
2023/09/17 10:26:49;;;;;;;3.30;2.80;;;;;;;25.61;56.53;97006.91;111739;1244;22493;-75
2023/09/17 10:29:20;;;;;;;2.70;2.00;;;;;;;25.74;57.57;97010.38;111756;1244;22528;-76
2023/09/17 10:31:50;;;;;;;2.90;2.70;;;;;;;25.85;57.08;97010.83;111768;1244;22484;-76
2023/09/17 10:34:20;;;;;;;2.90;2.50;;;;;;;25.90;56.35;97011.36;111732;1244;22530;-76
2023/09/17 10:36:50;;;;;;;2.80;2.50;;;;;;;25.80;55.45;97008.67;111748;1244;25277;-75
2023/09/17 10:39:23;;;;;;;2.60;2.40;;;;;;;25.64;55.49;97008.13;111756;1244;22520;-75
2023/09/17 10:41:54;;;;;;;3.50;2.10;;;;;;;25.54;55.09;97006.80;111738;1244;22624;-75
2023/09/17 10:44:29;;;;;;;3.10;2.10;;;;;;;25.54;55.33;97004.27;111766;1244;22613;-75
2023/09/17 10:47:01;;;;;;;2.70;2.20;;;;;;;25.57;55.31;97012.44;111761;1244;24362;-75
2023/09/17 10:49:32;;;;;;;3.60;2.60;;;;;;;25.56;54.91;97007.84;111753;1244;22499;-75
2023/09/17 10:52:01;;;;;;;2.50;2.30;;;;;;;25.51;54.35;97006.05;111732;1244;22677;-75
2023/09/17 10:54:29;;;;;;;3.50;2.30;;;;;;;25.39;54.15;97005.27;111690;1244;22512;-76
2023/09/17 10:57:01;;;;;;;2.90;2.60;;;;;;;25.27;53.96;97003.14;111721;1244;24192;-76
2023/09/17 10:59:30;;;;;;;3.00;2.50;;;;;;;25.23;54.48;97001.39;111739;1244;25387;-74
2023/09/17 11:01:59;;;;;;;4.00;2.70;;;;;;;25.31;54.81;97002.03;111713;1244;22566;-75
2023/09/17 11:04:28;;;;;;;;;;;;;;;25.43;54.94;96999.98;111804;1244;24194;-76
2023/09/17 11:06:58;;;;;;;2.90;2.30;;;;;;;25.42;54.25;97001.44;111739;1244;22505;-75
2023/09/17 11:09:27;;;;;;;3.70;2.00;;;;;;;25.10;53.40;97002.40;111708;1244;22585;-76
2023/09/17 11:11:56;;;;;;;3.20;2.30;;;;;;;24.68;53.21;97004.84;111750;1244;22556;-75
2023/09/17 11:14:28;;;;;;;2.30;2.00;;;;;;;24.33;53.74;97002.94;111740;1244;22498;-75
2023/09/17 11:17:00;;;;;;;2.80;2.30;;;;;;;24.06;53.89;97007.95;111764;1244;22510;-76
2023/09/17 11:19:29;;;;;;;2.20;1.90;;;;;;;23.86;54.38;97005.06;111733;1244;24195;-76
2023/09/17 11:22:12;;;;;;;2.00;1.90;;;;;;;23.73;54.65;97005.86;111735;1244;22611;-76
2023/09/17 11:24:44;;;;;;;3.90;2.50;;;;;;;23.68;55.01;97001.13;111733;1244;22479;-75
2023/09/17 11:27:18;;;;;;;3.90;2.60;;;;;;;23.79;55.85;97000.27;111747;1244;24325;-75
2023/09/17 11:29:48;;;;;;;2.60;2.40;;;;;;;24.15;56.12;96994.98;111750;1244;22502;-75
2023/09/17 11:32:24;;;;;;;2.20;2.00;;;;;;;24.44;55.58;96991.62;111678;1244;22502;-75
2023/09/17 11:34:57;;;;;;;3.90;2.30;;;;;;;24.67;55.74;96989.16;111805;1244;22523;-76
2023/09/17 11:37:27;;;;;;;2.40;2.20;;;;;;;24.88;55.34;96991.33;111725;1244;25179;-75